sensor_id;sensor_type;location;lat;lon;timestamp;pressure;altitude;pressure_sealevel;temperature;humidity
11648;BME280;5880;52.342;9.662;2024-02-14T00:00:00;101073.59;;;11.46;65.04
11648;BME280;5880;52.342;9.662;2024-02-14T00:02:26;101067.28;;;11.45;65.14
11648;BME280;5880;52.342;9.662;2024-02-14T00:04:53;101071.69;;;11.46;65.06
11648;BME280;5880;52.342;9.662;2024-02-14T00:07:20;101068.09;;;11.46;65.02
11648;BME280;5880;52.342;9.662;2024-02-14T00:09:47;101067.03;;;11.47;64.97
11648;BME280;5880;52.342;9.662;2024-02-14T00:12:12;101053.59;;;11.45;65.03
11648;BME280;5880;52.342;9.662;2024-02-14T00:14:38;101055.03;;;11.48;65.00
11648;BME280;5880;52.342;9.662;2024-02-14T00:17:04;101048.34;;;11.44;65.28
11648;BME280;5880;52.342;9.662;2024-02-14T00:19:31;101055.66;;;11.50;65.28
11648;BME280;5880;52.342;9.662;2024-02-14T00:21:57;101054.78;;;11.49;65.06
11648;BME280;5880;52.342;9.662;2024-02-14T00:24:23;101038.63;;;11.48;65.08
11648;BME280;5880;52.342;9.662;2024-02-14T00:26:50;101041.97;;;11.50;65.02
11648;BME280;5880;52.342;9.662;2024-02-14T00:29:16;101039.44;;;11.48;65.30
11648;BME280;5880;52.342;9.662;2024-02-14T00:31:41;101046.34;;;11.51;65.11
11648;BME280;5880;52.342;9.662;2024-02-14T00:34:10;101039.59;;;11.53;65.16
11648;BME280;5880;52.342;9.662;2024-02-14T00:36:35;101036.63;;;11.55;65.22
11648;BME280;5880;52.342;9.662;2024-02-14T00:39:01;101035.56;;;11.56;65.01
11648;BME280;5880;52.342;9.662;2024-02-14T00:41:27;101028.16;;;11.56;65.09
11648;BME280;5880;52.342;9.662;2024-02-14T00:43:55;101021.25;;;11.54;65.36
11648;BME280;5880;52.342;9.662;2024-02-14T00:46:21;101013.28;;;11.52;65.00
11648;BME280;5880;52.342;9.662;2024-02-14T00:48:47;101017.22;;;11.56;64.99
11648;BME280;5880;52.342;9.662;2024-02-14T00:51:13;101010.31;;;11.54;64.92
11648;BME280;5880;52.342;9.662;2024-02-14T00:53:39;101016.63;;;11.54;64.68
11648;BME280;5880;52.342;9.662;2024-02-14T00:56:05;101003.78;;;11.55;64.71
11648;BME280;5880;52.342;9.662;2024-02-14T00:58:31;101004.81;;;11.54;64.93
11648;BME280;5880;52.342;9.662;2024-02-14T01:00:57;101002.56;;;11.51;64.85
11648;BME280;5880;52.342;9.662;2024-02-14T01:03:23;100995.44;;;11.50;64.77
11648;BME280;5880;52.342;9.662;2024-02-14T01:05:49;100999.00;;;11.50;64.61
11648;BME280;5880;52.342;9.662;2024-02-14T01:08:15;100988.50;;;11.47;65.05
11648;BME280;5880;52.342;9.662;2024-02-14T01:10:41;101004.47;;;11.50;65.10
11648;BME280;5880;52.342;9.662;2024-02-14T01:13:06;100989.09;;;11.49;65.18
11648;BME280;5880;52.342;9.662;2024-02-14T01:15:32;100986.81;;;11.46;65.22
11648;BME280;5880;52.342;9.662;2024-02-14T01:17:59;100997.09;;;11.51;65.10
11648;BME280;5880;52.342;9.662;2024-02-14T01:20:25;100981.50;;;11.51;65.13
11648;BME280;5880;52.342;9.662;2024-02-14T01:22:51;100979.59;;;11.52;65.39
11648;BME280;5880;52.342;9.662;2024-02-14T01:25:17;100977.47;;;11.54;65.14
11648;BME280;5880;52.342;9.662;2024-02-14T01:27:42;100977.94;;;11.51;65.25
11648;BME280;5880;52.342;9.662;2024-02-14T01:30:10;100979.38;;;11.53;65.19
11648;BME280;5880;52.342;9.662;2024-02-14T01:32:35;100966.50;;;11.54;65.64
11648;BME280;5880;52.342;9.662;2024-02-14T01:35:01;100961.63;;;11.56;65.57
11648;BME280;5880;52.342;9.662;2024-02-14T01:37:27;100959.50;;;11.58;65.68
11648;BME280;5880;52.342;9.662;2024-02-14T01:39:54;100964.75;;;11.59;65.46
11648;BME280;5880;52.342;9.662;2024-02-14T01:42:20;100963.25;;;11.64;65.35
11648;BME280;5880;52.342;9.662;2024-02-14T01:44:46;100963.00;;;11.65;65.51
11648;BME280;5880;52.342;9.662;2024-02-14T01:47:11;100958.34;;;11.66;65.48
11648;BME280;5880;52.342;9.662;2024-02-14T01:49:38;100947.19;;;11.67;65.39
11648;BME280;5880;52.342;9.662;2024-02-14T01:52:05;100949.69;;;11.69;65.19
11648;BME280;5880;52.342;9.662;2024-02-14T01:54:33;100935.38;;;11.67;65.27
11648;BME280;5880;52.342;9.662;2024-02-14T01:57:00;100936.22;;;11.67;65.08
11648;BME280;5880;52.342;9.662;2024-02-14T01:59:26;100934.69;;;11.71;65.15
11648;BME280;5880;52.342;9.662;2024-02-14T02:01:52;100926.47;;;11.71;64.98
11648;BME280;5880;52.342;9.662;2024-02-14T02:04:18;100922.53;;;11.67;64.81
11648;BME280;5880;52.342;9.662;2024-02-14T02:06:44;100922.06;;;11.70;64.88
11648;BME280;5880;52.342;9.662;2024-02-14T02:09:10;100934.69;;;11.71;64.83
11648;BME280;5880;52.342;9.662;2024-02-14T02:11:52;100920.19;;;11.71;64.75
11648;BME280;5880;52.342;9.662;2024-02-14T02:14:21;100917.28;;;11.66;64.99
11648;BME280;5880;52.342;9.662;2024-02-14T02:16:47;100918.97;;;11.67;64.70
11648;BME280;5880;52.342;9.662;2024-02-14T02:19:14;100925.50;;;11.66;64.65
11648;BME280;5880;52.342;9.662;2024-02-14T02:21:42;100918.59;;;11.63;64.85
11648;BME280;5880;52.342;9.662;2024-02-14T02:24:11;100918.84;;;11.61;64.62
11648;BME280;5880;52.342;9.662;2024-02-14T02:26:37;100908.78;;;11.55;64.53
11648;BME280;5880;52.342;9.662;2024-02-14T02:29:03;100904.41;;;11.54;64.51
11648;BME280;5880;52.342;9.662;2024-02-14T02:31:30;100904.41;;;11.54;64.68
11648;BME280;5880;52.342;9.662;2024-02-14T02:33:56;100904.03;;;11.51;64.69
11648;BME280;5880;52.342;9.662;2024-02-14T02:36:22;100891.41;;;11.50;64.58
11648;BME280;5880;52.342;9.662;2024-02-14T02:38:50;100891.84;;;11.47;64.88
11648;BME280;5880;52.342;9.662;2024-02-14T02:41:15;100880.91;;;11.47;64.45
11648;BME280;5880;52.342;9.662;2024-02-14T02:43:41;100874.25;;;11.43;64.66
11648;BME280;5880;52.342;9.662;2024-02-14T02:46:09;100871.72;;;11.41;64.96
11648;BME280;5880;52.342;9.662;2024-02-14T02:48:35;100879.13;;;11.40;64.90
11648;BME280;5880;52.342;9.662;2024-02-14T02:51:01;100883.50;;;11.41;64.73
11648;BME280;5880;52.342;9.662;2024-02-14T02:53:27;100872.78;;;11.40;64.71
11648;BME280;5880;52.342;9.662;2024-02-14T02:55:52;100868.38;;;11.39;64.99
11648;BME280;5880;52.342;9.662;2024-02-14T02:58:20;100870.53;;;11.37;64.77
11648;BME280;5880;52.342;9.662;2024-02-14T03:00:46;100864.69;;;11.33;65.08
11648;BME280;5880;52.342;9.662;2024-02-14T03:03:15;100858.13;;;11.34;64.78
11648;BME280;5880;52.342;9.662;2024-02-14T03:05:42;100855.41;;;11.34;64.89
11648;BME280;5880;52.342;9.662;2024-02-14T03:08:12;100855.41;;;11.34;65.08
11648;BME280;5880;52.342;9.662;2024-02-14T03:10:41;100859.44;;;11.32;64.79
11648;BME280;5880;52.342;9.662;2024-02-14T03:13:07;100849.56;;;11.31;65.10
11648;BME280;5880;52.342;9.662;2024-02-14T03:15:37;100851.00;;;11.33;64.90
11648;BME280;5880;52.342;9.662;2024-02-14T03:18:03;100841.38;;;11.31;64.85
11648;BME280;5880;52.342;9.662;2024-02-14T03:20:33;100846.09;;;11.35;65.18
11648;BME280;5880;52.342;9.662;2024-02-14T03:22:59;100845.53;;;11.33;64.97
11648;BME280;5880;52.342;9.662;2024-02-14T03:25:24;100848.28;;;11.33;65.06
11648;BME280;5880;52.342;9.662;2024-02-14T03:27:51;100851.59;;;11.35;65.68
11648;BME280;5880;52.342;9.662;2024-02-14T03:30:20;100838.75;;;11.36;65.34
11648;BME280;5880;52.342;9.662;2024-02-14T03:32:46;100845.06;;;11.36;65.54
11648;BME280;5880;52.342;9.662;2024-02-14T03:35:12;100834.94;;;11.37;65.77
11648;BME280;5880;52.342;9.662;2024-02-14T03:37:40;100831.16;;;11.38;66.18
11648;BME280;5880;52.342;9.662;2024-02-14T03:40:08;100829.84;;;11.40;66.42
11648;BME280;5880;52.342;9.662;2024-02-14T03:42:35;100832.34;;;11.42;66.36
11648;BME280;5880;52.342;9.662;2024-02-14T03:45:01;100831.72;;;11.40;66.61
11648;BME280;5880;52.342;9.662;2024-02-14T03:47:34;100827.03;;;11.47;66.21
11648;BME280;5880;52.342;9.662;2024-02-14T03:50:01;100812.47;;;11.47;66.13
11648;BME280;5880;52.342;9.662;2024-02-14T03:52:30;100824.03;;;11.49;66.74
11648;BME280;5880;52.342;9.662;2024-02-14T03:55:00;100813.22;;;11.54;66.61
11648;BME280;5880;52.342;9.662;2024-02-14T03:57:26;100811.06;;;11.56;66.57
11648;BME280;5880;52.342;9.662;2024-02-14T03:59:54;100811.47;;;11.59;66.45
11648;BME280;5880;52.342;9.662;2024-02-14T04:02:21;100793.94;;;11.60;66.45
11648;BME280;5880;52.342;9.662;2024-02-14T04:04:49;100801.72;;;11.64;66.51
11648;BME280;5880;52.342;9.662;2024-02-14T04:07:14;100798.97;;;11.64;66.52
11648;BME280;5880;52.342;9.662;2024-02-14T04:09:40;100793.25;;;11.65;66.68
11648;BME280;5880;52.342;9.662;2024-02-14T04:12:06;100799.94;;;11.69;66.41
11648;BME280;5880;52.342;9.662;2024-02-14T04:14:32;100800.75;;;11.70;66.69
11648;BME280;5880;52.342;9.662;2024-02-14T04:16:57;100800.03;;;11.74;66.61
11648;BME280;5880;52.342;9.662;2024-02-14T04:19:23;100803.63;;;11.75;66.65
11648;BME280;5880;52.342;9.662;2024-02-14T04:21:49;100801.97;;;11.74;66.43
11648;BME280;5880;52.342;9.662;2024-02-14T04:24:14;100802.78;;;11.74;66.30
11648;BME280;5880;52.342;9.662;2024-02-14T04:26:40;100801.13;;;11.73;66.42
11648;BME280;5880;52.342;9.662;2024-02-14T04:29:08;100802.19;;;11.72;66.48
11648;BME280;5880;52.342;9.662;2024-02-14T04:31:34;100805.41;;;11.69;66.22
11648;BME280;5880;52.342;9.662;2024-02-14T04:34:00;100807.53;;;11.67;66.51
11648;BME280;5880;52.342;9.662;2024-02-14T04:36:26;100801.47;;;11.65;66.37
11648;BME280;5880;52.342;9.662;2024-02-14T04:38:52;100792.91;;;11.61;66.13
11648;BME280;5880;52.342;9.662;2024-02-14T04:41:18;100787.53;;;11.55;66.16
11648;BME280;5880;52.342;9.662;2024-02-14T04:43:44;100793.44;;;11.52;66.10
11648;BME280;5880;52.342;9.662;2024-02-14T04:46:10;100787.25;;;11.45;66.42
11648;BME280;5880;52.342;9.662;2024-02-14T04:48:36;100794.19;;;11.47;66.24
11648;BME280;5880;52.342;9.662;2024-02-14T04:51:03;100789.75;;;11.46;66.32
11648;BME280;5880;52.342;9.662;2024-02-14T04:53:30;100785.59;;;11.44;66.44
11648;BME280;5880;52.342;9.662;2024-02-14T04:55:56;100785.59;;;11.44;66.52
11648;BME280;5880;52.342;9.662;2024-02-14T04:58:22;100786.19;;;11.46;66.52
11648;BME280;5880;52.342;9.662;2024-02-14T05:00:48;100780.13;;;11.44;66.34
11648;BME280;5880;52.342;9.662;2024-02-14T05:03:14;100785.59;;;11.44;66.58
11648;BME280;5880;52.342;9.662;2024-02-14T05:05:40;100779.50;;;11.41;66.99
11648;BME280;5880;52.342;9.662;2024-02-14T05:08:06;100781.75;;;11.45;66.74
11648;BME280;5880;52.342;9.662;2024-02-14T05:10:32;100782.38;;;11.47;66.71
11648;BME280;5880;52.342;9.662;2024-02-14T05:12:58;100783.44;;;11.46;67.09
11648;BME280;5880;52.342;9.662;2024-02-14T05:15:24;100780.72;;;11.46;66.83
11648;BME280;5880;52.342;9.662;2024-02-14T05:17:51;100780.25;;;11.49;67.01
11648;BME280;5880;52.342;9.662;2024-02-14T05:20:17;100768.94;;;11.45;66.84
11648;BME280;5880;52.342;9.662;2024-02-14T05:22:43;100773.09;;;11.48;66.92
11648;BME280;5880;52.342;9.662;2024-02-14T05:25:09;100764.28;;;11.46;67.01
11648;BME280;5880;52.342;9.662;2024-02-14T05:27:36;100762.75;;;11.50;66.85
11648;BME280;5880;52.342;9.662;2024-02-14T05:30:03;100767.84;;;11.46;66.98
11648;BME280;5880;52.342;9.662;2024-02-14T05:32:33;100757.75;;;11.47;67.04
11648;BME280;5880;52.342;9.662;2024-02-14T05:35:00;100775.59;;;11.49;67.16
11648;BME280;5880;52.342;9.662;2024-02-14T05:37:26;100775.59;;;11.49;67.28
11648;BME280;5880;52.342;9.662;2024-02-14T05:39:55;100773.47;;;11.51;67.00
11648;BME280;5880;52.342;9.662;2024-02-14T05:42:20;100764.19;;;11.52;67.24
11648;BME280;5880;52.342;9.662;2024-02-14T05:44:47;100765.84;;;11.53;67.39
11648;BME280;5880;52.342;9.662;2024-02-14T05:47:13;100764.78;;;11.54;67.41
11648;BME280;5880;52.342;9.662;2024-02-14T05:49:39;100766.94;;;11.52;67.31
11648;BME280;5880;52.342;9.662;2024-02-14T05:52:06;100775.25;;;11.57;67.31
11648;BME280;5880;52.342;9.662;2024-02-14T05:54:33;100767.53;;;11.54;67.33
11648;BME280;5880;52.342;9.662;2024-02-14T05:56:58;100767.88;;;11.58;67.25
11648;BME280;5880;52.342;9.662;2024-02-14T05:59:24;100758.13;;;11.50;67.34
11648;BME280;5880;52.342;9.662;2024-02-14T06:01:50;100767.28;;;11.56;67.30
11648;BME280;5880;52.342;9.662;2024-02-14T06:04:15;100771.09;;;11.55;67.17
11648;BME280;5880;52.342;9.662;2024-02-14T06:06:41;100760.84;;;11.50;67.19
11648;BME280;5880;52.342;9.662;2024-02-14T06:09:07;100769.41;;;11.54;67.12
11648;BME280;5880;52.342;9.662;2024-02-14T06:11:36;100769.41;;;11.54;67.41
11648;BME280;5880;52.342;9.662;2024-02-14T06:14:08;100764.53;;;11.56;67.55
11648;BME280;5880;52.342;9.662;2024-02-14T06:16:34;100775.03;;;11.59;67.50
11648;BME280;5880;52.342;9.662;2024-02-14T06:19:00;100767.28;;;11.56;67.40
11648;BME280;5880;52.342;9.662;2024-02-14T06:21:26;100770.75;;;11.63;67.35
11648;BME280;5880;52.342;9.662;2024-02-14T06:23:53;100772.44;;;11.64;67.43
11648;BME280;5880;52.342;9.662;2024-02-14T06:26:19;100772.16;;;11.66;67.27
11648;BME280;5880;52.342;9.662;2024-02-14T06:28:45;100775.16;;;11.64;67.31
11648;BME280;5880;52.342;9.662;2024-02-14T06:31:11;100792.31;;;11.71;67.36
11648;BME280;5880;52.342;9.662;2024-02-14T06:33:37;100785.16;;;11.70;67.27
11648;BME280;5880;52.342;9.662;2024-02-14T06:36:04;100786.56;;;11.73;67.36
11648;BME280;5880;52.342;9.662;2024-02-14T06:38:31;100784.69;;;11.73;67.20
11648;BME280;5880;52.342;9.662;2024-02-14T06:40:57;100795.41;;;11.75;67.47
11648;BME280;5880;52.342;9.662;2024-02-14T06:43:23;100786.13;;;11.76;67.32
11648;BME280;5880;52.342;9.662;2024-02-14T06:45:48;100783.41;;;11.76;67.38
11648;BME280;5880;52.342;9.662;2024-02-14T06:48:14;100789.47;;;11.78;67.35
11648;BME280;5880;52.342;9.662;2024-02-14T06:50:40;100782.31;;;11.77;67.30
11648;BME280;5880;52.342;9.662;2024-02-14T06:53:06;100781.72;;;11.75;67.57
11648;BME280;5880;52.342;9.662;2024-02-14T06:55:32;100789.47;;;11.78;67.47
11648;BME280;5880;52.342;9.662;2024-02-14T06:57:59;100787.78;;;11.77;67.69
11648;BME280;5880;52.342;9.662;2024-02-14T07:00:25;100799.13;;;11.80;67.61
11648;BME280;5880;52.342;9.662;2024-02-14T07:02:51;100796.59;;;11.79;67.61
11648;BME280;5880;52.342;9.662;2024-02-14T07:05:16;100803.28;;;11.83;67.82
11648;BME280;5880;52.342;9.662;2024-02-14T07:07:42;100804.94;;;11.84;67.70
11648;BME280;5880;52.342;9.662;2024-02-14T07:10:08;100800.88;;;11.87;67.72
11648;BME280;5880;52.342;9.662;2024-02-14T07:12:34;100810.00;;;11.87;67.90
11648;BME280;5880;52.342;9.662;2024-02-14T07:15:03;100796.88;;;11.89;67.84
11648;BME280;5880;52.342;9.662;2024-02-14T07:17:30;100795.41;;;11.87;68.11
11648;BME280;5880;52.342;9.662;2024-02-14T07:19:55;100806.16;;;11.88;68.13
11648;BME280;5880;52.342;9.662;2024-02-14T07:22:21;100795.06;;;11.83;68.11
11648;BME280;5880;52.342;9.662;2024-02-14T07:24:47;100801.78;;;11.87;68.37
11648;BME280;5880;52.342;9.662;2024-02-14T07:27:15;100807.25;;;11.87;68.32
11648;BME280;5880;52.342;9.662;2024-02-14T07:29:40;100804.53;;;11.87;68.33
11648;BME280;5880;52.342;9.662;2024-02-14T07:32:06;100815.00;;;11.90;68.83
11648;BME280;5880;52.342;9.662;2024-02-14T07:34:32;100814.38;;;11.88;68.75
11648;BME280;5880;52.342;9.662;2024-02-14T07:36:58;100813.06;;;11.91;68.87
11648;BME280;5880;52.342;9.662;2024-02-14T07:39:24;100808.56;;;11.96;68.63
11648;BME280;5880;52.342;9.662;2024-02-14T07:41:51;100812.16;;;11.97;69.01
11648;BME280;5880;52.342;9.662;2024-02-14T07:44:17;100808.91;;;12.00;68.82
11648;BME280;5880;52.342;9.662;2024-02-14T07:46:43;100808.31;;;11.98;68.97
11648;BME280;5880;52.342;9.662;2024-02-14T07:49:08;100812.03;;;12.03;69.00
11648;BME280;5880;52.342;9.662;2024-02-14T07:51:35;100815.13;;;12.07;69.13
11648;BME280;5880;52.342;9.662;2024-02-14T07:54:04;100818.47;;;12.09;69.19
11648;BME280;5880;52.342;9.662;2024-02-14T07:56:30;100824.31;;;12.13;68.78
11648;BME280;5880;52.342;9.662;2024-02-14T07:58:56;100820.59;;;12.19;69.04
11648;BME280;5880;52.342;9.662;2024-02-14T08:01:23;100820.59;;;12.19;69.09
11648;BME280;5880;52.342;9.662;2024-02-14T08:03:48;100815.22;;;12.24;69.05
11648;BME280;5880;52.342;9.662;2024-02-14T08:06:14;100825.75;;;12.27;69.06
11648;BME280;5880;52.342;9.662;2024-02-14T08:08:40;100830.03;;;12.35;69.21
11648;BME280;5880;52.342;9.662;2024-02-14T08:11:06;100824.03;;;12.38;69.24
11648;BME280;5880;52.342;9.662;2024-02-14T08:13:32;100822.50;;;12.42;69.46
11648;BME280;5880;52.342;9.662;2024-02-14T08:15:58;100833.56;;;12.47;69.40
11648;BME280;5880;52.342;9.662;2024-02-14T08:18:24;100834.78;;;12.51;69.42
11648;BME280;5880;52.342;9.662;2024-02-14T08:20:50;100839.75;;;12.54;69.49
11648;BME280;5880;52.342;9.662;2024-02-14T08:23:16;100837.63;;;12.56;69.25
11648;BME280;5880;52.342;9.662;2024-02-14T08:25:42;100835.59;;;12.63;69.44
11648;BME280;5880;52.342;9.662;2024-02-14T08:28:09;100843.56;;;12.65;69.41
11648;BME280;5880;52.342;9.662;2024-02-14T08:30:35;100838.69;;;12.67;69.55
11648;BME280;5880;52.342;9.662;2024-02-14T08:33:01;100847.03;;;12.72;69.41
11648;BME280;5880;52.342;9.662;2024-02-14T08:35:26;100847.34;;;12.76;69.35
11648;BME280;5880;52.342;9.662;2024-02-14T08:37:52;100838.06;;;12.77;69.26
11648;BME280;5880;52.342;9.662;2024-02-14T08:40:20;100857.03;;;12.78;69.30
11648;BME280;5880;52.342;9.662;2024-02-14T08:42:46;100852.97;;;12.81;69.10
11648;BME280;5880;52.342;9.662;2024-02-14T08:45:12;100849.97;;;12.82;69.15
11648;BME280;5880;52.342;9.662;2024-02-14T08:47:38;100857.16;;;12.83;69.13
11648;BME280;5880;52.342;9.662;2024-02-14T08:50:04;100855.47;;;12.82;69.17
11648;BME280;5880;52.342;9.662;2024-02-14T08:52:30;100866.78;;;12.86;69.14
11648;BME280;5880;52.342;9.662;2024-02-14T08:54:56;100861.03;;;12.87;69.28
11648;BME280;5880;52.342;9.662;2024-02-14T08:57:21;100863.31;;;12.91;69.32
11648;BME280;5880;52.342;9.662;2024-02-14T08:59:48;100855.56;;;12.87;69.43
11648;BME280;5880;52.342;9.662;2024-02-14T09:02:14;100864.53;;;12.95;69.40
11648;BME280;5880;52.342;9.662;2024-02-14T09:04:41;100864.84;;;12.98;69.60
11648;BME280;5880;52.342;9.662;2024-02-14T09:07:07;100866.28;;;13.01;69.58
11648;BME280;5880;52.342;9.662;2024-02-14T09:09:33;100864.13;;;13.03;69.63
11648;BME280;5880;52.342;9.662;2024-02-14T09:11:59;100860.88;;;13.06;69.84
11648;BME280;5880;52.342;9.662;2024-02-14T09:14:31;100859.94;;;13.12;69.85
11648;BME280;5880;52.342;9.662;2024-02-14T09:16:57;100871.81;;;13.18;69.90
11648;BME280;5880;52.342;9.662;2024-02-14T09:19:23;100866.69;;;13.21;69.88
11648;BME280;5880;52.342;9.662;2024-02-14T09:21:50;100869.78;;;13.25;69.96
11648;BME280;5880;52.342;9.662;2024-02-14T09:24:16;100876.25;;;13.30;69.94
11648;BME280;5880;52.342;9.662;2024-02-14T09:26:42;100878.25;;;13.35;70.13
11648;BME280;5880;52.342;9.662;2024-02-14T09:29:08;100871.44;;;13.38;70.06
11648;BME280;5880;52.342;9.662;2024-02-14T09:31:36;100885.25;;;13.43;70.11
11648;BME280;5880;52.342;9.662;2024-02-14T09:34:02;100882.88;;;13.46;70.05
11648;BME280;5880;52.342;9.662;2024-02-14T09:36:28;100878.81;;;13.49;69.88
11648;BME280;5880;52.342;9.662;2024-02-14T09:38:54;100884.63;;;13.52;69.93
11648;BME280;5880;52.342;9.662;2024-02-14T09:41:25;100880.31;;;13.57;70.13
11648;BME280;5880;52.342;9.662;2024-02-14T09:43:54;100886.16;;;13.60;70.28
11648;BME280;5880;52.342;9.662;2024-02-14T09:46:24;100883.25;;;13.67;70.42
11648;BME280;5880;52.342;9.662;2024-02-14T09:48:53;100879.75;;;13.71;70.50
11648;BME280;5880;52.342;9.662;2024-02-14T09:51:19;100879.00;;;13.76;70.47
11648;BME280;5880;52.342;9.662;2024-02-14T09:53:46;100885.19;;;13.83;70.35
11648;BME280;5880;52.342;9.662;2024-02-14T09:56:12;100883.03;;;13.85;70.17
11648;BME280;5880;52.342;9.662;2024-02-14T09:58:40;100878.47;;;13.91;70.23
11648;BME280;5880;52.342;9.662;2024-02-14T10:01:06;100895.53;;;13.93;70.05
11648;BME280;5880;52.342;9.662;2024-02-14T10:03:33;100892.22;;;13.91;70.19
11648;BME280;5880;52.342;9.662;2024-02-14T10:05:59;100908.50;;;13.98;69.99
11648;BME280;5880;52.342;9.662;2024-02-14T10:08:25;100910.78;;;14.01;69.90
11648;BME280;5880;52.342;9.662;2024-02-14T10:10:52;100914.13;;;14.03;69.92
11648;BME280;5880;52.342;9.662;2024-02-14T10:13:18;100908.63;;;14.03;70.02
11648;BME280;5880;52.342;9.662;2024-02-14T10:15:43;100907.22;;;14.00;70.15
11648;BME280;5880;52.342;9.662;2024-02-14T10:18:09;100920.75;;;14.07;70.01
11648;BME280;5880;52.342;9.662;2024-02-14T10:20:35;100918.59;;;14.09;70.00
11648;BME280;5880;52.342;9.662;2024-02-14T10:23:07;100926.38;;;14.12;70.13
11648;BME280;5880;52.342;9.662;2024-02-14T10:25:36;100918.69;;;14.14;70.29
11648;BME280;5880;52.342;9.662;2024-02-14T10:28:07;100924.53;;;14.18;70.26
11648;BME280;5880;52.342;9.662;2024-02-14T10:30:37;100933.69;;;14.23;70.17
11648;BME280;5880;52.342;9.662;2024-02-14T10:33:07;100931.53;;;14.25;70.41
11648;BME280;5880;52.342;9.662;2024-02-14T10:35:35;100924.97;;;14.26;70.49
11648;BME280;5880;52.342;9.662;2024-02-14T10:38:03;100929.13;;;14.29;70.33
11648;BME280;5880;52.342;9.662;2024-02-14T10:40:38;100938.03;;;14.36;70.33
11648;BME280;5880;52.342;9.662;2024-02-14T10:43:08;100939.22;;;14.40;70.40
11648;BME280;5880;52.342;9.662;2024-02-14T10:45:35;100938.13;;;14.41;70.39
11648;BME280;5880;52.342;9.662;2024-02-14T10:48:04;100944.78;;;14.45;70.34
11648;BME280;5880;52.342;9.662;2024-02-14T10:50:34;100944.53;;;14.47;70.09
11648;BME280;5880;52.342;9.662;2024-02-14T10:53:05;100950.59;;;14.49;70.12
11648;BME280;5880;52.342;9.662;2024-02-14T10:55:33;100949.78;;;14.48;70.29
11648;BME280;5880;52.342;9.662;2024-02-14T10:58:01;100951.78;;;14.53;70.32
11648;BME280;5880;52.342;9.662;2024-02-14T11:00:27;100943.91;;;14.56;70.42
11648;BME280;5880;52.342;9.662;2024-02-14T11:02:53;100948.06;;;14.59;70.27
11648;BME280;5880;52.342;9.662;2024-02-14T11:05:20;100950.31;;;14.62;70.36
11648;BME280;5880;52.342;9.662;2024-02-14T11:07:51;100958.03;;;14.65;70.36
11648;BME280;5880;52.342;9.662;2024-02-14T11:10:20;100944.88;;;14.67;70.27
11648;BME280;5880;52.342;9.662;2024-02-14T11:12:48;100949.63;;;14.72;70.50
11648;BME280;5880;52.342;9.662;2024-02-14T11:15:24;100956.31;;;14.76;70.45
11648;BME280;5880;52.342;9.662;2024-02-14T11:17:50;100954.13;;;14.78;70.63
11648;BME280;5880;52.342;9.662;2024-02-14T11:20:31;100954.72;;;14.80;70.48
11648;BME280;5880;52.342;9.662;2024-02-14T11:25:30;100950.94;;;14.86;70.58
11648;BME280;5880;52.342;9.662;2024-02-14T11:27:58;100961.78;;;14.93;70.45
11648;BME280;5880;52.342;9.662;2024-02-14T11:30:34;100970.94;;;14.98;70.41
11648;BME280;5880;52.342;9.662;2024-02-14T11:33:20;100967.69;;;15.02;70.45
11648;BME280;5880;52.342;9.662;2024-02-14T11:35:51;100968.28;;;15.04;70.77
11648;BME280;5880;52.342;9.662;2024-02-14T11:38:23;100968.09;;;15.10;70.79
11648;BME280;5880;52.342;9.662;2024-02-14T11:40:54;100972.84;;;15.15;70.75
11648;BME280;5880;52.342;9.662;2024-02-14T11:43:22;100966.56;;;15.19;70.94
11648;BME280;5880;52.342;9.662;2024-02-14T11:45:48;100962.47;;;15.22;70.44
11648;BME280;5880;52.342;9.662;2024-02-14T11:48:18;100965.53;;;15.26;70.32
11648;BME280;5880;52.342;9.662;2024-02-14T11:50:46;100972.19;;;15.30;70.50
11648;BME280;5880;52.342;9.662;2024-02-14T11:53:13;100978.28;;;15.32;70.38
11648;BME280;5880;52.342;9.662;2024-02-14T11:55:42;100976.34;;;15.32;70.25
11648;BME280;5880;52.342;9.662;2024-02-14T11:58:11;100978.59;;;15.35;69.95
11648;BME280;5880;52.342;9.662;2024-02-14T12:00:42;100981.34;;;15.35;69.91
11648;BME280;5880;52.342;9.662;2024-02-14T12:03:24;100982.44;;;15.34;69.69
11648;BME280;5880;52.342;9.662;2024-02-14T12:05:52;100981.88;;;15.32;69.85
11648;BME280;5880;52.342;9.662;2024-02-14T12:08:18;100989.03;;;15.33;69.80
11648;BME280;5880;52.342;9.662;2024-02-14T12:10:45;100989.31;;;15.32;69.82
11648;BME280;5880;52.342;9.662;2024-02-14T12:13:20;100992.88;;;15.32;69.48
11648;BME280;5880;52.342;9.662;2024-02-14T12:15:48;100982.03;;;15.26;69.49
11648;BME280;5880;52.342;9.662;2024-02-14T12:18:17;100995.88;;;15.31;69.51
11648;BME280;5880;52.342;9.662;2024-02-14T12:20:46;100998.56;;;15.26;69.43
11648;BME280;5880;52.342;9.662;2024-02-14T12:23:16;100998.56;;;15.26;69.41
11648;BME280;5880;52.342;9.662;2024-02-14T12:25:43;100996.63;;;15.26;69.49
11648;BME280;5880;52.342;9.662;2024-02-14T12:28:19;100999.66;;;15.25;69.35
11648;BME280;5880;52.342;9.662;2024-02-14T12:30:46;101008.19;;;15.23;69.54
11648;BME280;5880;52.342;9.662;2024-02-14T12:33:14;100999.09;;;15.23;69.24
11648;BME280;5880;52.342;9.662;2024-02-14T12:35:45;101002.66;;;15.23;69.62
11648;BME280;5880;52.342;9.662;2024-02-14T12:38:14;100998.84;;;15.24;69.76
11648;BME280;5880;52.342;9.662;2024-02-14T12:40:41;101007.94;;;15.25;69.69
11648;BME280;5880;52.342;9.662;2024-02-14T12:43:08;101004.91;;;15.26;69.67
11648;BME280;5880;52.342;9.662;2024-02-14T12:45:34;101014.03;;;15.27;69.79
11648;BME280;5880;52.342;9.662;2024-02-14T12:48:00;101004.66;;;15.28;69.96
11648;BME280;5880;52.342;9.662;2024-02-14T12:50:26;101002.16;;;15.26;69.82
11648;BME280;5880;52.342;9.662;2024-02-14T12:52:52;101005.47;;;15.28;69.72
11648;BME280;5880;52.342;9.662;2024-02-14T12:55:18;101013.16;;;15.26;69.81
11648;BME280;5880;52.342;9.662;2024-02-14T12:57:45;101009.34;;;15.27;69.59
11648;BME280;5880;52.342;9.662;2024-02-14T13:00:12;101004.06;;;15.26;69.57